sensor_id;sensor_type;location;lat;lon;timestamp;P1;durP1;ratioP1;P2;durP2;ratioP2
42066;SDS011;27734;47.028;28.820;2022-11-06T00:00:38;13.43;;;5.77;;
42066;SDS011;27734;47.028;28.820;2022-11-06T00:03:10;12.03;;;5.60;;
42066;SDS011;27734;47.028;28.820;2022-11-06T00:05:41;13.53;;;5.67;;
42066;SDS011;27734;47.028;28.820;2022-11-06T00:08:33;14.67;;;6.60;;
42066;SDS011;27734;47.028;28.820;2022-11-06T00:11:09;14.80;;;5.87;;
42066;SDS011;27734;47.028;28.820;2022-11-06T00:13:41;16.63;;;6.30;;
42066;SDS011;27734;47.028;28.820;2022-11-06T00:16:14;14.13;;;5.50;;
42066;SDS011;27734;47.028;28.820;2022-11-06T00:18:46;15.57;;;5.93;;
42066;SDS011;27734;47.028;28.820;2022-11-06T00:21:18;14.30;;;5.90;;
42066;SDS011;27734;47.028;28.820;2022-11-06T00:23:50;13.27;;;5.57;;
42066;SDS011;27734;47.028;28.820;2022-11-06T00:26:23;15.60;;;6.07;;
42066;SDS011;27734;47.028;28.820;2022-11-06T00:28:56;11.07;;;5.40;;
42066;SDS011;27734;47.028;28.820;2022-11-06T00:31:28;13.63;;;5.60;;
42066;SDS011;27734;47.028;28.820;2022-11-06T00:34:03;11.77;;;5.30;;
42066;SDS011;27734;47.028;28.820;2022-11-06T00:36:34;13.80;;;5.70;;
42066;SDS011;27734;47.028;28.820;2022-11-06T00:39:06;12.90;;;5.40;;
42066;SDS011;27734;47.028;28.820;2022-11-06T00:41:38;15.50;;;5.70;;
42066;SDS011;27734;47.028;28.820;2022-11-06T00:44:09;14.10;;;5.63;;
42066;SDS011;27734;47.028;28.820;2022-11-06T00:46:40;12.20;;;5.03;;
42066;SDS011;27734;47.028;28.820;2022-11-06T00:49:11;12.13;;;5.40;;
42066;SDS011;27734;47.028;28.820;2022-11-06T00:51:43;12.93;;;5.50;;
42066;SDS011;27734;47.028;28.820;2022-11-06T00:54:14;12.43;;;5.30;;
42066;SDS011;27734;47.028;28.820;2022-11-06T00:56:45;12.10;;;5.00;;
42066;SDS011;27734;47.028;28.820;2022-11-06T00:59:16;13.93;;;5.23;;
42066;SDS011;27734;47.028;28.820;2022-11-06T01:01:47;13.53;;;5.57;;
42066;SDS011;27734;47.028;28.820;2022-11-06T01:04:20;13.40;;;5.27;;
42066;SDS011;27734;47.028;28.820;2022-11-06T01:06:52;12.83;;;5.73;;
42066;SDS011;27734;47.028;28.820;2022-11-06T01:09:25;13.57;;;5.70;;
42066;SDS011;27734;47.028;28.820;2022-11-06T01:11:57;10.87;;;5.33;;
42066;SDS011;27734;47.028;28.820;2022-11-06T01:14:28;11.80;;;5.37;;
42066;SDS011;27734;47.028;28.820;2022-11-06T01:17:00;13.13;;;5.10;;
42066;SDS011;27734;47.028;28.820;2022-11-06T01:19:31;10.30;;;5.23;;
42066;SDS011;27734;47.028;28.820;2022-11-06T01:22:02;9.07;;;4.90;;
42066;SDS011;27734;47.028;28.820;2022-11-06T01:24:33;11.17;;;5.43;;
42066;SDS011;27734;47.028;28.820;2022-11-06T01:27:04;13.43;;;6.43;;
42066;SDS011;27734;47.028;28.820;2022-11-06T01:29:36;12.27;;;5.60;;
42066;SDS011;27734;47.028;28.820;2022-11-06T01:32:07;13.40;;;5.90;;
42066;SDS011;27734;47.028;28.820;2022-11-06T01:34:38;16.87;;;5.97;;
42066;SDS011;27734;47.028;28.820;2022-11-06T01:37:09;12.20;;;5.67;;
42066;SDS011;27734;47.028;28.820;2022-11-06T01:39:40;11.83;;;5.80;;
42066;SDS011;27734;47.028;28.820;2022-11-06T01:42:12;14.07;;;6.27;;
42066;SDS011;27734;47.028;28.820;2022-11-06T01:45:06;14.07;;;6.20;;
42066;SDS011;27734;47.028;28.820;2022-11-06T01:48:01;12.67;;;5.60;;
42066;SDS011;27734;47.028;28.820;2022-11-06T01:50:33;12.10;;;6.03;;
42066;SDS011;27734;47.028;28.820;2022-11-06T01:53:05;16.10;;;6.53;;
42066;SDS011;27734;47.028;28.820;2022-11-06T01:55:39;15.45;;;6.60;;
42066;SDS011;27734;47.028;28.820;2022-11-06T01:58:14;16.63;;;6.40;;
42066;SDS011;27734;47.028;28.820;2022-11-06T02:00:47;16.17;;;6.53;;
42066;SDS011;27734;47.028;28.820;2022-11-06T02:03:19;13.93;;;6.00;;
42066;SDS011;27734;47.028;28.820;2022-11-06T02:05:50;12.43;;;6.40;;
42066;SDS011;27734;47.028;28.820;2022-11-06T02:08:23;16.57;;;7.03;;
42066;SDS011;27734;47.028;28.820;2022-11-06T02:10:55;15.33;;;6.87;;
42066;SDS011;27734;47.028;28.820;2022-11-06T02:13:30;15.43;;;6.30;;
42066;SDS011;27734;47.028;28.820;2022-11-06T02:16:08;15.37;;;6.83;;
42066;SDS011;27734;47.028;28.820;2022-11-06T02:18:57;14.93;;;6.97;;
42066;SDS011;27734;47.028;28.820;2022-11-06T02:21:51;17.15;;;7.20;;
42066;SDS011;27734;47.028;28.820;2022-11-06T02:27:25;17.73;;;7.33;;
42066;SDS011;27734;47.028;28.820;2022-11-06T02:29:59;17.67;;;6.80;;
42066;SDS011;27734;47.028;28.820;2022-11-06T02:32:34;15.20;;;6.90;;
42066;SDS011;27734;47.028;28.820;2022-11-06T02:35:12;17.90;;;7.50;;
42066;SDS011;27734;47.028;28.820;2022-11-06T02:37:50;15.73;;;7.33;;
42066;SDS011;27734;47.028;28.820;2022-11-06T02:40:24;13.87;;;6.63;;
42066;SDS011;27734;47.028;28.820;2022-11-06T02:43:01;14.33;;;6.23;;
42066;SDS011;27734;47.028;28.820;2022-11-06T02:45:37;17.97;;;6.70;;
42066;SDS011;27734;47.028;28.820;2022-11-06T02:48:11;15.03;;;7.00;;
42066;SDS011;27734;47.028;28.820;2022-11-06T02:50:47;14.17;;;6.43;;
42066;SDS011;27734;47.028;28.820;2022-11-06T02:53:23;16.80;;;7.00;;
42066;SDS011;27734;47.028;28.820;2022-11-06T02:55:56;15.17;;;6.57;;
42066;SDS011;27734;47.028;28.820;2022-11-06T02:58:33;15.50;;;6.50;;
42066;SDS011;27734;47.028;28.820;2022-11-06T03:01:10;15.97;;;6.73;;
42066;SDS011;27734;47.028;28.820;2022-11-06T03:03:46;15.13;;;6.87;;
42066;SDS011;27734;47.028;28.820;2022-11-06T03:06:25;16.27;;;6.57;;
42066;SDS011;27734;47.028;28.820;2022-11-06T03:09:02;15.50;;;7.27;;
42066;SDS011;27734;47.028;28.820;2022-11-06T03:14:08;16.10;;;6.60;;
42066;SDS011;27734;47.028;28.820;2022-11-06T03:16:45;15.37;;;6.83;;
42066;SDS011;27734;47.028;28.820;2022-11-06T03:19:23;16.87;;;7.40;;
42066;SDS011;27734;47.028;28.820;2022-11-06T03:21:59;14.67;;;6.60;;
42066;SDS011;27734;47.028;28.820;2022-11-06T03:24:38;15.40;;;6.77;;
42066;SDS011;27734;47.028;28.820;2022-11-06T03:27:16;15.57;;;6.83;;
42066;SDS011;27734;47.028;28.820;2022-11-06T03:29:52;16.73;;;7.07;;
42066;SDS011;27734;47.028;28.820;2022-11-06T03:32:30;18.13;;;7.17;;
42066;SDS011;27734;47.028;28.820;2022-11-06T03:35:08;14.17;;;6.67;;
42066;SDS011;27734;47.028;28.820;2022-11-06T03:37:44;14.80;;;6.67;;
42066;SDS011;27734;47.028;28.820;2022-11-06T03:40:20;14.80;;;6.53;;
42066;SDS011;27734;47.028;28.820;2022-11-06T03:42:55;14.43;;;6.07;;
42066;SDS011;27734;47.028;28.820;2022-11-06T03:45:29;14.90;;;6.63;;
42066;SDS011;27734;47.028;28.820;2022-11-06T03:48:02;14.63;;;6.30;;
42066;SDS011;27734;47.028;28.820;2022-11-06T03:50:39;13.83;;;6.43;;
42066;SDS011;27734;47.028;28.820;2022-11-06T03:53:16;15.73;;;6.43;;
42066;SDS011;27734;47.028;28.820;2022-11-06T03:55:54;14.43;;;6.33;;
42066;SDS011;27734;47.028;28.820;2022-11-06T03:58:29;13.70;;;6.20;;
42066;SDS011;27734;47.028;28.820;2022-11-06T04:01:04;13.73;;;6.10;;
42066;SDS011;27734;47.028;28.820;2022-11-06T04:03:42;15.43;;;6.23;;
42066;SDS011;27734;47.028;28.820;2022-11-06T04:06:19;15.57;;;6.50;;
42066;SDS011;27734;47.028;28.820;2022-11-06T04:08:53;15.80;;;7.07;;
42066;SDS011;27734;47.028;28.820;2022-11-06T04:11:45;12.97;;;6.03;;
42066;SDS011;27734;47.028;28.820;2022-11-06T04:14:35;13.47;;;6.17;;
42066;SDS011;27734;47.028;28.820;2022-11-06T04:17:10;13.80;;;6.20;;
42066;SDS011;27734;47.028;28.820;2022-11-06T04:19:44;12.18;;;5.78;;
42066;SDS011;27734;47.028;28.820;2022-11-06T04:22:20;15.50;;;5.83;;
42066;SDS011;27734;47.028;28.820;2022-11-06T04:25:06;13.13;;;5.50;;
42066;SDS011;27734;47.028;28.820;2022-11-06T04:28:07;10.97;;;5.63;;
42066;SDS011;27734;47.028;28.820;2022-11-06T04:30:50;13.35;;;6.05;;
42066;SDS011;27734;47.028;28.820;2022-11-06T04:33:27;13.70;;;5.53;;
42066;SDS011;27734;47.028;28.820;2022-11-06T04:36:08;12.53;;;5.93;;
42066;SDS011;27734;47.028;28.820;2022-11-06T04:38:50;12.03;;;5.73;;
42066;SDS011;27734;47.028;28.820;2022-11-06T04:41:32;12.97;;;6.10;;
42066;SDS011;27734;47.028;28.820;2022-11-06T04:44:08;14.87;;;6.57;;
42066;SDS011;27734;47.028;28.820;2022-11-06T04:46:44;13.37;;;6.43;;
42066;SDS011;27734;47.028;28.820;2022-11-06T04:49:18;13.60;;;6.53;;
42066;SDS011;27734;47.028;28.820;2022-11-06T04:51:50;12.37;;;5.93;;
42066;SDS011;27734;47.028;28.820;2022-11-06T04:54:22;14.03;;;7.03;;
42066;SDS011;27734;47.028;28.820;2022-11-06T04:56:56;14.77;;;6.43;;
42066;SDS011;27734;47.028;28.820;2022-11-06T04:59:29;15.37;;;6.10;;
42066;SDS011;27734;47.028;28.820;2022-11-06T05:02:02;11.48;;;5.55;;
42066;SDS011;27734;47.028;28.820;2022-11-06T05:04:34;13.27;;;6.33;;
42066;SDS011;27734;47.028;28.820;2022-11-06T05:07:05;12.30;;;5.70;;
42066;SDS011;27734;47.028;28.820;2022-11-06T05:09:37;12.50;;;5.87;;
42066;SDS011;27734;47.028;28.820;2022-11-06T05:12:08;12.90;;;6.00;;
42066;SDS011;27734;47.028;28.820;2022-11-06T05:14:39;14.57;;;6.27;;
42066;SDS011;27734;47.028;28.820;2022-11-06T05:17:10;13.77;;;5.93;;
42066;SDS011;27734;47.028;28.820;2022-11-06T05:19:41;15.43;;;6.57;;
42066;SDS011;27734;47.028;28.820;2022-11-06T05:22:13;12.80;;;6.20;;
42066;SDS011;27734;47.028;28.820;2022-11-06T05:25:01;12.90;;;6.33;;
42066;SDS011;27734;47.028;28.820;2022-11-06T05:27:33;12.83;;;6.23;;
42066;SDS011;27734;47.028;28.820;2022-11-06T05:30:05;14.40;;;6.77;;
42066;SDS011;27734;47.028;28.820;2022-11-06T05:32:38;15.10;;;6.08;;
42066;SDS011;27734;47.028;28.820;2022-11-06T05:35:09;15.37;;;7.13;;
42066;SDS011;27734;47.028;28.820;2022-11-06T05:37:40;15.53;;;7.40;;
42066;SDS011;27734;47.028;28.820;2022-11-06T05:40:11;15.60;;;6.80;;
42066;SDS011;27734;47.028;28.820;2022-11-06T05:42:43;15.07;;;6.47;;
42066;SDS011;27734;47.028;28.820;2022-11-06T05:45:14;16.60;;;7.63;;
42066;SDS011;27734;47.028;28.820;2022-11-06T05:47:45;14.90;;;6.83;;
42066;SDS011;27734;47.028;28.820;2022-11-06T05:50:17;15.37;;;7.27;;
42066;SDS011;27734;47.028;28.820;2022-11-06T05:52:48;14.27;;;7.27;;
42066;SDS011;27734;47.028;28.820;2022-11-06T05:55:19;17.20;;;7.67;;
42066;SDS011;27734;47.028;28.820;2022-11-06T05:57:50;17.73;;;7.53;;
42066;SDS011;27734;47.028;28.820;2022-11-06T06:00:21;16.03;;;7.17;;
42066;SDS011;27734;47.028;28.820;2022-11-06T06:02:52;17.40;;;7.53;;
42066;SDS011;27734;47.028;28.820;2022-11-06T06:05:23;17.93;;;7.53;;
42066;SDS011;27734;47.028;28.820;2022-11-06T06:07:54;15.37;;;7.43;;
42066;SDS011;27734;47.028;28.820;2022-11-06T06:10:25;16.67;;;8.17;;
42066;SDS011;27734;47.028;28.820;2022-11-06T06:12:57;15.50;;;7.83;;
42066;SDS011;27734;47.028;28.820;2022-11-06T06:15:28;19.40;;;7.93;;
42066;SDS011;27734;47.028;28.820;2022-11-06T06:17:59;15.80;;;7.63;;
42066;SDS011;27734;47.028;28.820;2022-11-06T06:20:30;16.77;;;8.00;;
42066;SDS011;27734;47.028;28.820;2022-11-06T06:23:01;14.80;;;7.87;;
42066;SDS011;27734;47.028;28.820;2022-11-06T06:25:33;16.57;;;7.93;;
42066;SDS011;27734;47.028;28.820;2022-11-06T06:28:04;17.50;;;8.10;;
42066;SDS011;27734;47.028;28.820;2022-11-06T06:30:35;16.57;;;7.97;;
42066;SDS011;27734;47.028;28.820;2022-11-06T06:33:09;17.57;;;7.95;;
42066;SDS011;27734;47.028;28.820;2022-11-06T06:35:40;16.60;;;7.83;;
42066;SDS011;27734;47.028;28.820;2022-11-06T06:38:11;18.10;;;8.53;;
42066;SDS011;27734;47.028;28.820;2022-11-06T06:40:42;17.47;;;9.07;;
42066;SDS011;27734;47.028;28.820;2022-11-06T06:43:16;13.10;;;7.30;;
42066;SDS011;27734;47.028;28.820;2022-11-06T06:45:47;18.53;;;8.63;;
42066;SDS011;27734;47.028;28.820;2022-11-06T06:48:18;18.73;;;8.67;;
42066;SDS011;27734;47.028;28.820;2022-11-06T06:50:49;19.17;;;9.47;;
42066;SDS011;27734;47.028;28.820;2022-11-06T06:53:20;16.83;;;8.90;;
42066;SDS011;27734;47.028;28.820;2022-11-06T06:55:52;18.20;;;9.13;;
42066;SDS011;27734;47.028;28.820;2022-11-06T06:58:25;17.17;;;8.90;;
42066;SDS011;27734;47.028;28.820;2022-11-06T07:00:58;18.93;;;8.90;;
42066;SDS011;27734;47.028;28.820;2022-11-06T07:03:31;19.57;;;9.10;;
42066;SDS011;27734;47.028;28.820;2022-11-06T07:06:02;21.97;;;9.77;;
42066;SDS011;27734;47.028;28.820;2022-11-06T07:08:34;19.77;;;8.97;;
42066;SDS011;27734;47.028;28.820;2022-11-06T07:11:06;19.23;;;9.80;;
42066;SDS011;27734;47.028;28.820;2022-11-06T07:13:39;20.00;;;10.53;;
42066;SDS011;27734;47.028;28.820;2022-11-06T07:16:10;19.73;;;9.47;;
42066;SDS011;27734;47.028;28.820;2022-11-06T07:18:41;22.97;;;10.73;;
42066;SDS011;27734;47.028;28.820;2022-11-06T07:21:12;21.13;;;9.93;;
42066;SDS011;27734;47.028;28.820;2022-11-06T07:23:44;21.07;;;9.20;;
42066;SDS011;27734;47.028;28.820;2022-11-06T07:26:15;19.60;;;9.30;;
42066;SDS011;27734;47.028;28.820;2022-11-06T07:28:46;20.20;;;9.37;;
42066;SDS011;27734;47.028;28.820;2022-11-06T07:31:17;22.17;;;10.30;;
42066;SDS011;27734;47.028;28.820;2022-11-06T07:33:48;20.67;;;10.17;;
42066;SDS011;27734;47.028;28.820;2022-11-06T07:36:19;22.77;;;10.00;;
42066;SDS011;27734;47.028;28.820;2022-11-06T07:38:51;22.57;;;10.43;;
42066;SDS011;27734;47.028;28.820;2022-11-06T07:41:22;21.40;;;9.20;;
42066;SDS011;27734;47.028;28.820;2022-11-06T07:43:53;20.67;;;9.47;;
42066;SDS011;27734;47.028;28.820;2022-11-06T07:46:24;22.17;;;10.63;;
42066;SDS011;27734;47.028;28.820;2022-11-06T07:48:55;22.40;;;10.43;;
42066;SDS011;27734;47.028;28.820;2022-11-06T07:51:26;19.10;;;9.50;;
42066;SDS011;27734;47.028;28.820;2022-11-06T07:53:57;20.77;;;10.43;;
42066;SDS011;27734;47.028;28.820;2022-11-06T07:56:29;20.60;;;10.10;;
42066;SDS011;27734;47.028;28.820;2022-11-06T07:59:00;21.97;;;10.77;;
42066;SDS011;27734;47.028;28.820;2022-11-06T08:01:31;23.33;;;11.10;;
42066;SDS011;27734;47.028;28.820;2022-11-06T08:04:02;24.70;;;11.10;;
42066;SDS011;27734;47.028;28.820;2022-11-06T08:06:33;22.63;;;11.13;;
42066;SDS011;27734;47.028;28.820;2022-11-06T08:09:05;22.40;;;10.40;;
42066;SDS011;27734;47.028;28.820;2022-11-06T08:11:37;20.00;;;10.53;;
42066;SDS011;27734;47.028;28.820;2022-11-06T08:14:08;23.23;;;11.37;;
42066;SDS011;27734;47.028;28.820;2022-11-06T08:16:39;25.57;;;11.60;;
42066;SDS011;27734;47.028;28.820;2022-11-06T08:19:10;25.90;;;11.53;;
42066;SDS011;27734;47.028;28.820;2022-11-06T08:21:41;24.50;;;11.90;;
42066;SDS011;27734;47.028;28.820;2022-11-06T08:24:13;21.67;;;11.50;;
42066;SDS011;27734;47.028;28.820;2022-11-06T08:26:44;26.37;;;12.70;;
42066;SDS011;27734;47.028;28.820;2022-11-06T08:29:15;25.80;;;12.00;;
42066;SDS011;27734;47.028;28.820;2022-11-06T08:31:46;24.57;;;11.30;;
42066;SDS011;27734;47.028;28.820;2022-11-06T08:34:17;22.33;;;11.60;;
42066;SDS011;27734;47.028;28.820;2022-11-06T08:36:49;26.43;;;12.73;;
42066;SDS011;27734;47.028;28.820;2022-11-06T08:39:21;22.90;;;11.27;;
42066;SDS011;27734;47.028;28.820;2022-11-06T08:41:52;24.23;;;11.87;;
42066;SDS011;27734;47.028;28.820;2022-11-06T08:44:23;25.97;;;12.67;;
42066;SDS011;27734;47.028;28.820;2022-11-06T08:46:54;27.40;;;14.17;;
42066;SDS011;27734;47.028;28.820;2022-11-06T08:49:25;26.37;;;12.50;;
42066;SDS011;27734;47.028;28.820;2022-11-06T08:51:56;25.10;;;13.00;;
42066;SDS011;27734;47.028;28.820;2022-11-06T08:57:00;26.50;;;13.27;;
42066;SDS011;27734;47.028;28.820;2022-11-06T08:59:31;24.57;;;13.47;;
42066;SDS011;27734;47.028;28.820;2022-11-06T09:02:03;24.87;;;13.33;;
42066;SDS011;27734;47.028;28.820;2022-11-06T09:04:34;27.10;;;13.03;;
42066;SDS011;27734;47.028;28.820;2022-11-06T09:07:05;29.33;;;15.10;;
42066;SDS011;27734;47.028;28.820;2022-11-06T09:09:37;23.23;;;12.37;;
42066;SDS011;27734;47.028;28.820;2022-11-06T09:12:08;28.17;;;13.33;;
42066;SDS011;27734;47.028;28.820;2022-11-06T09:14:40;25.70;;;13.60;;
42066;SDS011;27734;47.028;28.820;2022-11-06T09:17:11;24.90;;;13.77;;
42066;SDS011;27734;47.028;28.820;2022-11-06T09:19:42;25.13;;;12.50;;
42066;SDS011;27734;47.028;28.820;2022-11-06T09:22:13;30.97;;;15.00;;
42066;SDS011;27734;47.028;28.820;2022-11-06T09:24:44;27.47;;;14.77;;
42066;SDS011;27734;47.028;28.820;2022-11-06T09:27:16;26.37;;;13.23;;
42066;SDS011;27734;47.028;28.820;2022-11-06T09:29:47;30.30;;;14.47;;
42066;SDS011;27734;47.028;28.820;2022-11-06T09:32:19;28.30;;;13.67;;
42066;SDS011;27734;47.028;28.820;2022-11-06T09:34:51;28.20;;;13.23;;
42066;SDS011;27734;47.028;28.820;2022-11-06T09:37:22;27.47;;;13.17;;
42066;SDS011;27734;47.028;28.820;2022-11-06T09:39:53;25.30;;;12.90;;
42066;SDS011;27734;47.028;28.820;2022-11-06T09:42:27;25.83;;;13.37;;
42066;SDS011;27734;47.028;28.820;2022-11-06T09:45:13;25.50;;;13.07;;
42066;SDS011;27734;47.028;28.820;2022-11-06T09:47:50;28.00;;;14.43;;
42066;SDS011;27734;47.028;28.820;2022-11-06T09:50:41;24.60;;;13.33;;
42066;SDS011;27734;47.028;28.820;2022-11-06T09:53:18;28.17;;;13.70;;
42066;SDS011;27734;47.028;28.820;2022-11-06T09:55:55;30.87;;;14.73;;
42066;SDS011;27734;47.028;28.820;2022-11-06T09:58:29;29.07;;;14.70;;
42066;SDS011;27734;47.028;28.820;2022-11-06T10:01:04;28.43;;;15.37;;
42066;SDS011;27734;47.028;28.820;2022-11-06T10:03:42;30.20;;;15.53;;
42066;SDS011;27734;47.028;28.820;2022-11-06T10:06:20;28.90;;;14.87;;
42066;SDS011;27734;47.028;28.820;2022-11-06T10:08:53;26.70;;;14.83;;
42066;SDS011;27734;47.028;28.820;2022-11-06T10:11:38;25.43;;;14.63;;
42066;SDS011;27734;47.028;28.820;2022-11-06T10:14:26;27.03;;;14.63;;
42066;SDS011;27734;47.028;28.820;2022-11-06T10:17:25;29.20;;;15.67;;
42066;SDS011;27734;47.028;28.820;2022-11-06T10:20:09;26.73;;;15.53;;
42066;SDS011;27734;47.028;28.820;2022-11-06T10:22:47;28.27;;;15.20;;
42066;SDS011;27734;47.028;28.820;2022-11-06T10:25:35;28.57;;;15.70;;
42066;SDS011;27734;47.028;28.820;2022-11-06T10:28:28;29.07;;;15.47;;
42066;SDS011;27734;47.028;28.820;2022-11-06T10:31:11;27.57;;;14.77;;
42066;SDS011;27734;47.028;28.820;2022-11-06T10:33:53;29.60;;;14.57;;
42066;SDS011;27734;47.028;28.820;2022-11-06T10:36:28;27.23;;;15.33;;
42066;SDS011;27734;47.028;28.820;2022-11-06T10:39:05;26.40;;;14.87;;
42066;SDS011;27734;47.028;28.820;2022-11-06T10:41:45;28.17;;;15.57;;
42066;SDS011;27734;47.028;28.820;2022-11-06T10:44:20;26.93;;;14.63;;
42066;SDS011;27734;47.028;28.820;2022-11-06T10:46:59;33.13;;;15.33;;
42066;SDS011;27734;47.028;28.820;2022-11-06T10:49:40;26.90;;;14.63;;
42066;SDS011;27734;47.028;28.820;2022-11-06T10:52:20;30.20;;;14.90;;
42066;SDS011;27734;47.028;28.820;2022-11-06T10:55:12;29.93;;;16.13;;
42066;SDS011;27734;47.028;28.820;2022-11-06T10:58:06;27.50;;;15.17;;
42066;SDS011;27734;47.028;28.820;2022-11-06T11:00:40;26.10;;;14.67;;
42066;SDS011;27734;47.028;28.820;2022-11-06T11:03:17;28.90;;;15.30;;
42066;SDS011;27734;47.028;28.820;2022-11-06T11:05:54;28.77;;;15.13;;
42066;SDS011;27734;47.028;28.820;2022-11-06T11:08:32;30.27;;;15.53;;
42066;SDS011;27734;47.028;28.820;2022-11-06T11:11:17;28.17;;;15.13;;
42066;SDS011;27734;47.028;28.820;2022-11-06T11:14:10;27.93;;;15.23;;
42066;SDS011;27734;47.028;28.820;2022-11-06T11:16:43;30.87;;;16.70;;
42066;SDS011;27734;47.028;28.820;2022-11-06T11:19:21;30.70;;;17.00;;
42066;SDS011;27734;47.028;28.820;2022-11-06T11:21:54;30.33;;;16.47;;
42066;SDS011;27734;47.028;28.820;2022-11-06T11:24:27;29.70;;;16.60;;
42066;SDS011;27734;47.028;28.820;2022-11-06T11:26:59;32.77;;;17.00;;
42066;SDS011;27734;47.028;28.820;2022-11-06T11:29:33;30.47;;;16.73;;
42066;SDS011;27734;47.028;28.820;2022-11-06T11:32:15;34.30;;;18.17;;
42066;SDS011;27734;47.028;28.820;2022-11-06T11:34:49;33.45;;;18.02;;
42066;SDS011;27734;47.028;28.820;2022-11-06T11:37:23;31.25;;;17.62;;
42066;SDS011;27734;47.028;28.820;2022-11-06T11:39:56;35.78;;;18.00;;
42066;SDS011;27734;47.028;28.820;2022-11-06T11:43:16;35.33;;;19.37;;
42066;SDS011;27734;47.028;28.820;2022-11-06T11:48:45;35.90;;;19.30;;
42066;SDS011;27734;47.028;28.820;2022-11-06T11:51:25;39.07;;;19.70;;
42066;SDS011;27734;47.028;28.820;2022-11-06T11:54:04;37.80;;;21.15;;
42066;SDS011;27734;47.028;28.820;2022-11-06T11:56:47;36.83;;;19.25;;
42066;SDS011;27734;47.028;28.820;2022-11-06T11:59:21;35.27;;;19.83;;
42066;SDS011;27734;47.028;28.820;2022-11-06T12:01:55;38.90;;;21.30;;
42066;SDS011;27734;47.028;28.820;2022-11-06T12:04:30;39.37;;;20.70;;
42066;SDS011;27734;47.028;28.820;2022-11-06T12:07:13;39.60;;;20.80;;
42066;SDS011;27734;47.028;28.820;2022-11-06T12:09:52;37.87;;;19.93;;
42066;SDS011;27734;47.028;28.820;2022-11-06T12:12:24;42.70;;;21.57;;
42066;SDS011;27734;47.028;28.820;2022-11-06T12:15:13;43.00;;;21.93;;
42066;SDS011;27734;47.028;28.820;2022-11-06T12:17:49;36.63;;;20.93;;
42066;SDS011;27734;47.028;28.820;2022-11-06T12:20:25;38.20;;;21.03;;
42066;SDS011;27734;47.028;28.820;2022-11-06T12:23:02;39.57;;;20.93;;
42066;SDS011;27734;47.028;28.820;2022-11-06T12:25:40;38.90;;;21.13;;
42066;SDS011;27734;47.028;28.820;2022-11-06T12:28:16;36.73;;;20.07;;
42066;SDS011;27734;47.028;28.820;2022-11-06T12:30:53;37.50;;;21.13;;
42066;SDS011;27734;47.028;28.820;2022-11-06T12:33:28;37.27;;;20.20;;
42066;SDS011;27734;47.028;28.820;2022-11-06T12:36:03;41.10;;;21.48;;
42066;SDS011;27734;47.028;28.820;2022-11-06T12:38:40;41.65;;;22.85;;
42066;SDS011;27734;47.028;28.820;2022-11-06T12:41:18;40.15;;;21.25;;
42066;SDS011;27734;47.028;28.820;2022-11-06T12:43:55;41.70;;;22.47;;
42066;SDS011;27734;47.028;28.820;2022-11-06T12:46:30;42.53;;;22.43;;
42066;SDS011;27734;47.028;28.820;2022-11-06T12:49:12;43.03;;;24.67;;
42066;SDS011;27734;47.028;28.820;2022-11-06T12:51:59;43.87;;;23.43;;
42066;SDS011;27734;47.028;28.820;2022-11-06T12:54:44;42.05;;;22.25;;
42066;SDS011;27734;47.028;28.820;2022-11-06T12:57:28;42.77;;;23.53;;
42066;SDS011;27734;47.028;28.820;2022-11-06T13:00:08;39.83;;;21.23;;
42066;SDS011;27734;47.028;28.820;2022-11-06T13:02:49;45.87;;;22.37;;
42066;SDS011;27734;47.028;28.820;2022-11-06T13:05:39;39.20;;;20.23;;
42066;SDS011;27734;47.028;28.820;2022-11-06T13:08:23;39.10;;;21.47;;
42066;SDS011;27734;47.028;28.820;2022-11-06T13:11:09;47.50;;;26.35;;
42066;SDS011;27734;47.028;28.820;2022-11-06T13:13:54;44.00;;;23.97;;
42066;SDS011;27734;47.028;28.820;2022-11-06T13:16:35;42.47;;;22.73;;
42066;SDS011;27734;47.028;28.820;2022-11-06T13:19:17;42.33;;;23.50;;
42066;SDS011;27734;47.028;28.820;2022-11-06T13:22:04;41.03;;;22.97;;
42066;SDS011;27734;47.028;28.820;2022-11-06T13:24:45;42.33;;;22.10;;
42066;SDS011;27734;47.028;28.820;2022-11-06T13:27:24;42.47;;;22.43;;
42066;SDS011;27734;47.028;28.820;2022-11-06T13:30:04;43.60;;;24.60;;
42066;SDS011;27734;47.028;28.820;2022-11-06T13:32:43;43.97;;;23.97;;
42066;SDS011;27734;47.028;28.820;2022-11-06T13:35:19;44.23;;;24.67;;
42066;SDS011;27734;47.028;28.820;2022-11-06T13:37:51;41.60;;;23.50;;
42066;SDS011;27734;47.028;28.820;2022-11-06T13:40:26;43.08;;;23.98;;
42066;SDS011;27734;47.028;28.820;2022-11-06T13:43:03;44.60;;;24.50;;
42066;SDS011;27734;47.028;28.820;2022-11-06T13:45:45;49.47;;;25.47;;
42066;SDS011;27734;47.028;28.820;2022-11-06T13:48:25;46.63;;;23.90;;
42066;SDS011;27734;47.028;28.820;2022-11-06T13:51:04;45.70;;;24.97;;
42066;SDS011;27734;47.028;28.820;2022-11-06T13:53:42;46.50;;;25.57;;
42066;SDS011;27734;47.028;28.820;2022-11-06T13:56:26;45.23;;;24.37;;
42066;SDS011;27734;47.028;28.820;2022-11-06T13:59:25;44.83;;;23.57;;
42066;SDS011;27734;47.028;28.820;2022-11-06T14:02:26;41.73;;;24.27;;
42066;SDS011;27734;47.028;28.820;2022-11-06T14:05:26;41.47;;;22.53;;
42066;SDS011;27734;47.028;28.820;2022-11-06T14:08:13;45.37;;;23.83;;
42066;SDS011;27734;47.028;28.820;2022-11-06T14:10:49;41.90;;;23.10;;
42066;SDS011;27734;47.028;28.820;2022-11-06T14:13:24;43.90;;;21.47;;
42066;SDS011;27734;47.028;28.820;2022-11-06T14:16:02;41.67;;;21.77;;
42066;SDS011;27734;47.028;28.820;2022-11-06T14:18:55;43.70;;;22.53;;
42066;SDS011;27734;47.028;28.820;2022-11-06T14:24:33;39.23;;;21.50;;
42066;SDS011;27734;47.028;28.820;2022-11-06T14:27:05;41.80;;;21.80;;
42066;SDS011;27734;47.028;28.820;2022-11-06T14:29:50;43.40;;;22.03;;
42066;SDS011;27734;47.028;28.820;2022-11-06T14:32:39;40.47;;;21.27;;
42066;SDS011;27734;47.028;28.820;2022-11-06T14:44:28;42.37;;;22.10;;
42066;SDS011;27734;47.028;28.820;2022-11-06T14:47:18;45.20;;;21.87;;
42066;SDS011;27734;47.028;28.820;2022-11-06T14:49:54;44.50;;;23.07;;
42066;SDS011;27734;47.028;28.820;2022-11-06T14:52:29;44.53;;;22.30;;
42066;SDS011;27734;47.028;28.820;2022-11-06T14:55:17;45.50;;;22.70;;
42066;SDS011;27734;47.028;28.820;2022-11-06T14:57:56;43.48;;;22.48;;
42066;SDS011;27734;47.028;28.820;2022-11-06T15:00:37;41.77;;;21.83;;
42066;SDS011;27734;47.028;28.820;2022-11-06T15:03:20;40.33;;;22.53;;
42066;SDS011;27734;47.028;28.820;2022-11-06T15:05:56;45.47;;;23.27;;
42066;SDS011;27734;47.028;28.820;2022-11-06T15:17:24;39.03;;;21.80;;
42066;SDS011;27734;47.028;28.820;2022-11-06T15:20:04;39.53;;;21.83;;
42066;SDS011;27734;47.028;28.820;2022-11-06T15:22:51;38.20;;;21.53;;
42066;SDS011;27734;47.028;28.820;2022-11-06T15:25:31;41.17;;;21.10;;
42066;SDS011;27734;47.028;28.820;2022-11-06T15:28:10;40.55;;;21.50;;
42066;SDS011;27734;47.028;28.820;2022-11-06T15:30:46;39.93;;;20.73;;
42066;SDS011;27734;47.028;28.820;2022-11-06T15:33:21;36.25;;;19.95;;
42066;SDS011;27734;47.028;28.820;2022-11-06T15:35:56;38.07;;;20.57;;
42066;SDS011;27734;47.028;28.820;2022-11-06T15:38:37;39.03;;;20.77;;